sensor_id;sensor_type;location;lat;lon;timestamp;temperature;humidity
11229;DHT22;5671;47.936;8.716;2023-07-16T00:00:59;19.00;83.90
11229;DHT22;5671;47.936;8.716;2023-07-16T00:03:26;19.00;82.80
11229;DHT22;5671;47.936;8.716;2023-07-16T00:05:53;18.90;82.40
11229;DHT22;5671;47.936;8.716;2023-07-16T00:08:19;18.70;82.70
11229;DHT22;5671;47.936;8.716;2023-07-16T00:10:48;18.70;83.00
11229;DHT22;5671;47.936;8.716;2023-07-16T00:13:14;18.60;82.80
11229;DHT22;5671;47.936;8.716;2023-07-16T00:15:42;18.50;81.60
11229;DHT22;5671;47.936;8.716;2023-07-16T00:18:08;18.40;82.60
11229;DHT22;5671;47.936;8.716;2023-07-16T00:20:35;18.40;82.50
11229;DHT22;5671;47.936;8.716;2023-07-16T00:23:02;18.30;81.50
11229;DHT22;5671;47.936;8.716;2023-07-16T00:25:29;18.30;82.80
11229;DHT22;5671;47.936;8.716;2023-07-16T00:27:57;18.30;82.60
11229;DHT22;5671;47.936;8.716;2023-07-16T00:30:24;18.30;82.40
11229;DHT22;5671;47.936;8.716;2023-07-16T00:32:50;18.20;82.50
11229;DHT22;5671;47.936;8.716;2023-07-16T00:35:17;18.10;83.10
11229;DHT22;5671;47.936;8.716;2023-07-16T00:37:44;18.10;82.70
11229;DHT22;5671;47.936;8.716;2023-07-16T00:40:11;18.00;82.40
11229;DHT22;5671;47.936;8.716;2023-07-16T00:42:38;18.00;82.50
11229;DHT22;5671;47.936;8.716;2023-07-16T00:45:11;18.00;82.60
11229;DHT22;5671;47.936;8.716;2023-07-16T00:47:39;17.90;82.20
11229;DHT22;5671;47.936;8.716;2023-07-16T00:50:07;17.90;81.20
11229;DHT22;5671;47.936;8.716;2023-07-16T00:52:34;17.90;82.30
11229;DHT22;5671;47.936;8.716;2023-07-16T00:55:02;17.90;81.60
11229;DHT22;5671;47.936;8.716;2023-07-16T00:57:29;17.80;81.90
11229;DHT22;5671;47.936;8.716;2023-07-16T00:59:57;17.70;82.90
11229;DHT22;5671;47.936;8.716;2023-07-16T01:02:25;17.70;83.20
11229;DHT22;5671;47.936;8.716;2023-07-16T01:04:52;17.70;82.70
11229;DHT22;5671;47.936;8.716;2023-07-16T01:07:21;17.70;83.60
11229;DHT22;5671;47.936;8.716;2023-07-16T01:09:50;17.70;83.40
11229;DHT22;5671;47.936;8.716;2023-07-16T01:12:18;17.60;83.70
11229;DHT22;5671;47.936;8.716;2023-07-16T01:14:47;17.60;83.80
11229;DHT22;5671;47.936;8.716;2023-07-16T01:17:14;17.60;84.10
11229;DHT22;5671;47.936;8.716;2023-07-16T01:19:42;17.60;83.70
11229;DHT22;5671;47.936;8.716;2023-07-16T01:22:30;17.50;83.50
11229;DHT22;5671;47.936;8.716;2023-07-16T01:25:09;17.50;83.30
11229;DHT22;5671;47.936;8.716;2023-07-16T01:27:56;17.50;83.70
11229;DHT22;5671;47.936;8.716;2023-07-16T01:30:27;17.50;82.00
11229;DHT22;5671;47.936;8.716;2023-07-16T01:32:55;17.40;81.70
11229;DHT22;5671;47.936;8.716;2023-07-16T01:35:22;17.30;82.10
11229;DHT22;5671;47.936;8.716;2023-07-16T01:37:49;17.30;82.20
11229;DHT22;5671;47.936;8.716;2023-07-16T01:40:16;17.20;82.00
11229;DHT22;5671;47.936;8.716;2023-07-16T01:42:43;17.10;81.60
11229;DHT22;5671;47.936;8.716;2023-07-16T01:45:09;17.10;82.20
11229;DHT22;5671;47.936;8.716;2023-07-16T01:47:48;17.00;82.40
11229;DHT22;5671;47.936;8.716;2023-07-16T01:50:17;17.00;82.20
11229;DHT22;5671;47.936;8.716;2023-07-16T01:52:43;16.90;81.40
11229;DHT22;5671;47.936;8.716;2023-07-16T01:55:10;16.90;81.20
11229;DHT22;5671;47.936;8.716;2023-07-16T01:57:37;16.80;81.40
11229;DHT22;5671;47.936;8.716;2023-07-16T02:00:05;16.70;81.40
11229;DHT22;5671;47.936;8.716;2023-07-16T02:02:33;16.60;80.80
11229;DHT22;5671;47.936;8.716;2023-07-16T02:05:01;16.60;81.50
11229;DHT22;5671;47.936;8.716;2023-07-16T02:07:28;16.60;81.80
11229;DHT22;5671;47.936;8.716;2023-07-16T02:09:56;16.50;81.60
11229;DHT22;5671;47.936;8.716;2023-07-16T02:12:22;16.50;82.10
11229;DHT22;5671;47.936;8.716;2023-07-16T02:14:49;16.50;81.60
11229;DHT22;5671;47.936;8.716;2023-07-16T02:17:16;16.40;82.50
11229;DHT22;5671;47.936;8.716;2023-07-16T02:19:43;16.40;82.80
11229;DHT22;5671;47.936;8.716;2023-07-16T02:22:11;16.40;83.30
11229;DHT22;5671;47.936;8.716;2023-07-16T02:24:38;16.40;83.30
11229;DHT22;5671;47.936;8.716;2023-07-16T02:27:05;16.40;82.70
11229;DHT22;5671;47.936;8.716;2023-07-16T02:29:32;16.40;81.70
11229;DHT22;5671;47.936;8.716;2023-07-16T02:31:59;16.30;79.30
11229;DHT22;5671;47.936;8.716;2023-07-16T02:34:26;16.20;78.90
11229;DHT22;5671;47.936;8.716;2023-07-16T02:36:52;16.10;78.30
11229;DHT22;5671;47.936;8.716;2023-07-16T02:39:21;16.10;79.90
11229;DHT22;5671;47.936;8.716;2023-07-16T02:41:47;16.10;80.90
11229;DHT22;5671;47.936;8.716;2023-07-16T02:44:14;16.00;81.10
11229;DHT22;5671;47.936;8.716;2023-07-16T02:46:41;16.00;82.00
11229;DHT22;5671;47.936;8.716;2023-07-16T02:49:09;16.00;82.30
11229;DHT22;5671;47.936;8.716;2023-07-16T02:51:36;16.00;82.20
11229;DHT22;5671;47.936;8.716;2023-07-16T02:54:03;16.00;82.20
11229;DHT22;5671;47.936;8.716;2023-07-16T02:56:31;16.00;82.20
11229;DHT22;5671;47.936;8.716;2023-07-16T02:58:58;16.00;82.70
11229;DHT22;5671;47.936;8.716;2023-07-16T03:01:25;15.90;81.90
11229;DHT22;5671;47.936;8.716;2023-07-16T03:03:52;16.00;82.00
11229;DHT22;5671;47.936;8.716;2023-07-16T03:06:18;16.00;82.90
11229;DHT22;5671;47.936;8.716;2023-07-16T03:08:45;15.90;82.20
11229;DHT22;5671;47.936;8.716;2023-07-16T03:11:12;15.90;81.80
11229;DHT22;5671;47.936;8.716;2023-07-16T03:13:40;15.80;81.60
11229;DHT22;5671;47.936;8.716;2023-07-16T03:16:07;15.80;81.30
11229;DHT22;5671;47.936;8.716;2023-07-16T03:18:34;15.70;81.70
11229;DHT22;5671;47.936;8.716;2023-07-16T03:21:01;15.70;82.40
11229;DHT22;5671;47.936;8.716;2023-07-16T03:23:27;15.70;82.30
11229;DHT22;5671;47.936;8.716;2023-07-16T03:25:54;15.60;82.30
11229;DHT22;5671;47.936;8.716;2023-07-16T03:28:21;15.60;81.70
11229;DHT22;5671;47.936;8.716;2023-07-16T03:30:50;15.50;81.50
11229;DHT22;5671;47.936;8.716;2023-07-16T03:33:17;15.50;81.40
11229;DHT22;5671;47.936;8.716;2023-07-16T03:35:44;15.40;81.40
11229;DHT22;5671;47.936;8.716;2023-07-16T03:38:11;15.40;81.60
11229;DHT22;5671;47.936;8.716;2023-07-16T03:40:38;15.30;81.70
11229;DHT22;5671;47.936;8.716;2023-07-16T03:43:06;15.30;81.50
11229;DHT22;5671;47.936;8.716;2023-07-16T03:45:33;15.20;81.30
11229;DHT22;5671;47.936;8.716;2023-07-16T03:48:01;15.20;81.80
11229;DHT22;5671;47.936;8.716;2023-07-16T03:50:28;15.20;81.70
11229;DHT22;5671;47.936;8.716;2023-07-16T03:52:55;15.10;82.60
11229;DHT22;5671;47.936;8.716;2023-07-16T03:55:22;15.10;82.50
11229;DHT22;5671;47.936;8.716;2023-07-16T03:57:49;15.10;81.90
11229;DHT22;5671;47.936;8.716;2023-07-16T04:00:18;15.10;82.10
11229;DHT22;5671;47.936;8.716;2023-07-16T04:02:44;15.10;82.30
11229;DHT22;5671;47.936;8.716;2023-07-16T04:05:13;15.00;82.40
11229;DHT22;5671;47.936;8.716;2023-07-16T04:07:39;15.00;82.00
11229;DHT22;5671;47.936;8.716;2023-07-16T04:10:07;15.00;81.70
11229;DHT22;5671;47.936;8.716;2023-07-16T04:12:34;15.00;82.50
11229;DHT22;5671;47.936;8.716;2023-07-16T04:15:01;14.90;81.60
11229;DHT22;5671;47.936;8.716;2023-07-16T04:17:27;14.90;82.40
11229;DHT22;5671;47.936;8.716;2023-07-16T04:19:54;14.90;82.80
11229;DHT22;5671;47.936;8.716;2023-07-16T04:22:22;14.90;82.90
11229;DHT22;5671;47.936;8.716;2023-07-16T04:24:49;14.80;82.20
11229;DHT22;5671;47.936;8.716;2023-07-16T04:27:16;14.80;82.50
11229;DHT22;5671;47.936;8.716;2023-07-16T04:29:43;14.80;82.60
11229;DHT22;5671;47.936;8.716;2023-07-16T04:32:09;14.80;82.60
11229;DHT22;5671;47.936;8.716;2023-07-16T04:34:36;14.80;82.20
11229;DHT22;5671;47.936;8.716;2023-07-16T04:37:03;14.80;82.10
11229;DHT22;5671;47.936;8.716;2023-07-16T04:39:31;14.80;82.50
11229;DHT22;5671;47.936;8.716;2023-07-16T04:41:58;14.80;82.10
11229;DHT22;5671;47.936;8.716;2023-07-16T04:44:25;14.70;82.20
11229;DHT22;5671;47.936;8.716;2023-07-16T04:46:52;14.70;82.50
11229;DHT22;5671;47.936;8.716;2023-07-16T04:49:18;14.70;82.10
11229;DHT22;5671;47.936;8.716;2023-07-16T04:51:45;14.60;82.10
11229;DHT22;5671;47.936;8.716;2023-07-16T04:54:13;14.60;82.20
11229;DHT22;5671;47.936;8.716;2023-07-16T04:56:41;14.60;82.20
11229;DHT22;5671;47.936;8.716;2023-07-16T04:59:07;14.60;81.20
11229;DHT22;5671;47.936;8.716;2023-07-16T05:01:34;14.60;81.50
11229;DHT22;5671;47.936;8.716;2023-07-16T05:04:01;14.60;81.60
11229;DHT22;5671;47.936;8.716;2023-07-16T05:06:28;14.70;82.20
11229;DHT22;5671;47.936;8.716;2023-07-16T05:08:55;14.70;82.10
11229;DHT22;5671;47.936;8.716;2023-07-16T05:11:21;14.70;81.30
11229;DHT22;5671;47.936;8.716;2023-07-16T05:13:49;14.70;82.70
11229;DHT22;5671;47.936;8.716;2023-07-16T05:16:16;14.70;82.10
11229;DHT22;5671;47.936;8.716;2023-07-16T05:18:43;14.70;81.50
11229;DHT22;5671;47.936;8.716;2023-07-16T05:21:10;14.80;81.70
11229;DHT22;5671;47.936;8.716;2023-07-16T05:23:37;14.80;81.00
11229;DHT22;5671;47.936;8.716;2023-07-16T05:26:03;14.80;79.70
11229;DHT22;5671;47.936;8.716;2023-07-16T05:28:30;14.70;80.30
11229;DHT22;5671;47.936;8.716;2023-07-16T05:30:59;14.70;79.40
11229;DHT22;5671;47.936;8.716;2023-07-16T05:33:26;14.80;80.20
11229;DHT22;5671;47.936;8.716;2023-07-16T05:35:53;14.80;80.60
11229;DHT22;5671;47.936;8.716;2023-07-16T05:38:21;14.80;80.90
11229;DHT22;5671;47.936;8.716;2023-07-16T05:40:47;14.80;82.20
11229;DHT22;5671;47.936;8.716;2023-07-16T05:43:14;14.70;82.10
11229;DHT22;5671;47.936;8.716;2023-07-16T05:45:41;14.80;83.00
11229;DHT22;5671;47.936;8.716;2023-07-16T05:48:09;14.80;82.40
11229;DHT22;5671;47.936;8.716;2023-07-16T05:50:37;14.70;81.60
11229;DHT22;5671;47.936;8.716;2023-07-16T05:53:04;14.70;83.10
11229;DHT22;5671;47.936;8.716;2023-07-16T05:55:31;14.70;82.40
11229;DHT22;5671;47.936;8.716;2023-07-16T05:57:57;14.70;82.80
11229;DHT22;5671;47.936;8.716;2023-07-16T06:00:24;14.70;81.80
11229;DHT22;5671;47.936;8.716;2023-07-16T06:02:51;14.70;81.20
11229;DHT22;5671;47.936;8.716;2023-07-16T06:05:19;14.80;81.80
11229;DHT22;5671;47.936;8.716;2023-07-16T06:07:46;14.80;81.60
11229;DHT22;5671;47.936;8.716;2023-07-16T06:10:13;14.80;81.70
11229;DHT22;5671;47.936;8.716;2023-07-16T06:12:40;14.80;81.80
11229;DHT22;5671;47.936;8.716;2023-07-16T06:15:07;14.90;82.10
11229;DHT22;5671;47.936;8.716;2023-07-16T06:17:34;14.90;82.30
11229;DHT22;5671;47.936;8.716;2023-07-16T06:20:01;14.80;79.70
11229;DHT22;5671;47.936;8.716;2023-07-16T06:22:30;14.80;80.60
11229;DHT22;5671;47.936;8.716;2023-07-16T06:24:56;14.90;80.10
11229;DHT22;5671;47.936;8.716;2023-07-16T06:27:23;14.90;79.60
11229;DHT22;5671;47.936;8.716;2023-07-16T06:29:50;14.90;79.70
11229;DHT22;5671;47.936;8.716;2023-07-16T06:32:17;14.90;79.90
11229;DHT22;5671;47.936;8.716;2023-07-16T06:34:44;15.00;81.20
11229;DHT22;5671;47.936;8.716;2023-07-16T06:37:10;15.00;79.50
11229;DHT22;5671;47.936;8.716;2023-07-16T06:39:39;15.00;80.00
11229;DHT22;5671;47.936;8.716;2023-07-16T06:42:06;15.00;79.90
11229;DHT22;5671;47.936;8.716;2023-07-16T06:44:32;15.10;78.50
11229;DHT22;5671;47.936;8.716;2023-07-16T06:46:59;15.10;80.40
11229;DHT22;5671;47.936;8.716;2023-07-16T06:49:27;15.20;79.20
11229;DHT22;5671;47.936;8.716;2023-07-16T06:51:53;15.20;78.00
11229;DHT22;5671;47.936;8.716;2023-07-16T06:54:20;15.30;78.40
11229;DHT22;5671;47.936;8.716;2023-07-16T06:56:48;15.30;80.40
11229;DHT22;5671;47.936;8.716;2023-07-16T06:59:15;15.40;79.40
11229;DHT22;5671;47.936;8.716;2023-07-16T07:01:42;15.40;78.40
11229;DHT22;5671;47.936;8.716;2023-07-16T07:04:09;15.50;78.20
11229;DHT22;5671;47.936;8.716;2023-07-16T07:06:36;15.40;77.60
11229;DHT22;5671;47.936;8.716;2023-07-16T07:09:02;15.50;77.40
11229;DHT22;5671;47.936;8.716;2023-07-16T07:11:31;15.50;76.90
11229;DHT22;5671;47.936;8.716;2023-07-16T07:13:59;15.50;75.60
11229;DHT22;5671;47.936;8.716;2023-07-16T07:16:26;15.50;76.90
11229;DHT22;5671;47.936;8.716;2023-07-16T07:18:53;15.50;76.60
11229;DHT22;5671;47.936;8.716;2023-07-16T07:21:19;15.60;77.90
11229;DHT22;5671;47.936;8.716;2023-07-16T07:23:46;15.70;77.90
11229;DHT22;5671;47.936;8.716;2023-07-16T07:26:13;15.70;76.60
11229;DHT22;5671;47.936;8.716;2023-07-16T07:28:40;15.80;76.10
11229;DHT22;5671;47.936;8.716;2023-07-16T07:31:13;15.90;74.60
11229;DHT22;5671;47.936;8.716;2023-07-16T07:33:40;15.90;75.20
11229;DHT22;5671;47.936;8.716;2023-07-16T07:36:07;16.00;74.40
11229;DHT22;5671;47.936;8.716;2023-07-16T07:38:33;16.00;73.60
11229;DHT22;5671;47.936;8.716;2023-07-16T07:41:00;16.10;77.10
11229;DHT22;5671;47.936;8.716;2023-07-16T07:43:27;16.20;75.30
11229;DHT22;5671;47.936;8.716;2023-07-16T07:45:54;16.30;73.60
11229;DHT22;5671;47.936;8.716;2023-07-16T07:48:22;16.40;74.40
11229;DHT22;5671;47.936;8.716;2023-07-16T07:50:49;16.60;73.10
11229;DHT22;5671;47.936;8.716;2023-07-16T07:53:16;16.70;73.80
11229;DHT22;5671;47.936;8.716;2023-07-16T07:55:46;16.70;70.60
11229;DHT22;5671;47.936;8.716;2023-07-16T07:58:16;16.80;73.10
11229;DHT22;5671;47.936;8.716;2023-07-16T08:00:42;16.90;72.20
11229;DHT22;5671;47.936;8.716;2023-07-16T08:03:09;16.90;70.90
11229;DHT22;5671;47.936;8.716;2023-07-16T08:05:37;16.90;71.80
11229;DHT22;5671;47.936;8.716;2023-07-16T08:08:04;17.00;69.80
11229;DHT22;5671;47.936;8.716;2023-07-16T08:10:31;17.00;71.30
11229;DHT22;5671;47.936;8.716;2023-07-16T08:12:58;17.10;70.10
11229;DHT22;5671;47.936;8.716;2023-07-16T08:15:25;17.00;71.10
11229;DHT22;5671;47.936;8.716;2023-07-16T08:17:51;17.10;70.50
11229;DHT22;5671;47.936;8.716;2023-07-16T08:20:19;17.20;69.10
11229;DHT22;5671;47.936;8.716;2023-07-16T08:22:47;17.20;69.80
11229;DHT22;5671;47.936;8.716;2023-07-16T08:25:17;17.20;72.20
11229;DHT22;5671;47.936;8.716;2023-07-16T08:27:44;17.30;70.30
11229;DHT22;5671;47.936;8.716;2023-07-16T08:30:11;17.30;69.20
11229;DHT22;5671;47.936;8.716;2023-07-16T08:32:37;17.40;70.30
11229;DHT22;5671;47.936;8.716;2023-07-16T08:35:05;17.50;69.40
11229;DHT22;5671;47.936;8.716;2023-07-16T08:37:32;17.60;70.20
11229;DHT22;5671;47.936;8.716;2023-07-16T08:40:00;17.80;71.50
11229;DHT22;5671;47.936;8.716;2023-07-16T08:42:29;17.90;70.00
11229;DHT22;5671;47.936;8.716;2023-07-16T08:44:56;18.00;68.80
11229;DHT22;5671;47.936;8.716;2023-07-16T08:47:23;18.00;68.80
11229;DHT22;5671;47.936;8.716;2023-07-16T08:49:54;18.10;68.80
11229;DHT22;5671;47.936;8.716;2023-07-16T08:52:21;18.20;69.00
11229;DHT22;5671;47.936;8.716;2023-07-16T08:54:48;18.30;70.40
11229;DHT22;5671;47.936;8.716;2023-07-16T08:57:17;18.40;68.80
11229;DHT22;5671;47.936;8.716;2023-07-16T08:59:44;18.50;67.90
11229;DHT22;5671;47.936;8.716;2023-07-16T09:02:12;18.60;68.30
11229;DHT22;5671;47.936;8.716;2023-07-16T09:04:39;18.70;67.50
11229;DHT22;5671;47.936;8.716;2023-07-16T09:07:06;18.80;66.90
11229;DHT22;5671;47.936;8.716;2023-07-16T09:09:33;19.00;68.40
11229;DHT22;5671;47.936;8.716;2023-07-16T09:11:59;19.10;66.50
11229;DHT22;5671;47.936;8.716;2023-07-16T09:14:28;19.10;65.20
11229;DHT22;5671;47.936;8.716;2023-07-16T09:16:54;19.20;64.70
11229;DHT22;5671;47.936;8.716;2023-07-16T09:19:22;19.30;65.10
11229;DHT22;5671;47.936;8.716;2023-07-16T09:21:49;19.30;65.10
11229;DHT22;5671;47.936;8.716;2023-07-16T09:24:17;19.30;64.50
11229;DHT22;5671;47.936;8.716;2023-07-16T09:26:50;19.40;64.40
11229;DHT22;5671;47.936;8.716;2023-07-16T09:29:18;19.40;64.00
11229;DHT22;5671;47.936;8.716;2023-07-16T09:31:54;19.40;63.90
11229;DHT22;5671;47.936;8.716;2023-07-16T09:34:21;19.40;65.20
11229;DHT22;5671;47.936;8.716;2023-07-16T09:36:48;19.50;64.90
11229;DHT22;5671;47.936;8.716;2023-07-16T09:39:17;19.60;66.90
11229;DHT22;5671;47.936;8.716;2023-07-16T09:41:48;19.70;65.70
11229;DHT22;5671;47.936;8.716;2023-07-16T09:44:15;19.80;63.70
11229;DHT22;5671;47.936;8.716;2023-07-16T09:46:42;19.90;64.20
11229;DHT22;5671;47.936;8.716;2023-07-16T09:49:11;19.90;62.60
11229;DHT22;5671;47.936;8.716;2023-07-16T09:51:38;19.90;63.40
11229;DHT22;5671;47.936;8.716;2023-07-16T09:54:06;19.90;61.50
11229;DHT22;5671;47.936;8.716;2023-07-16T09:56:35;19.90;63.30
11229;DHT22;5671;47.936;8.716;2023-07-16T09:59:06;20.00;62.20
11229;DHT22;5671;47.936;8.716;2023-07-16T10:01:36;20.20;63.30
11229;DHT22;5671;47.936;8.716;2023-07-16T10:04:13;20.20;60.20
11229;DHT22;5671;47.936;8.716;2023-07-16T10:06:53;20.20;61.50
11229;DHT22;5671;47.936;8.716;2023-07-16T10:09:37;20.20;62.60
11229;DHT22;5671;47.936;8.716;2023-07-16T10:12:14;20.40;63.00
11229;DHT22;5671;47.936;8.716;2023-07-16T10:14:42;20.60;61.90
11229;DHT22;5671;47.936;8.716;2023-07-16T10:17:13;20.60;60.70
11229;DHT22;5671;47.936;8.716;2023-07-16T10:19:56;20.50;60.90
11229;DHT22;5671;47.936;8.716;2023-07-16T10:22:33;20.50;61.20
11229;DHT22;5671;47.936;8.716;2023-07-16T10:25:01;20.40;62.00
11229;DHT22;5671;47.936;8.716;2023-07-16T10:27:29;20.50;61.40
11229;DHT22;5671;47.936;8.716;2023-07-16T10:29:57;20.80;60.60
11229;DHT22;5671;47.936;8.716;2023-07-16T10:32:27;20.90;62.90
11229;DHT22;5671;47.936;8.716;2023-07-16T10:34:55;21.00;60.50
11229;DHT22;5671;47.936;8.716;2023-07-16T10:37:22;21.10;60.60
11229;DHT22;5671;47.936;8.716;2023-07-16T10:39:51;21.30;62.20
11229;DHT22;5671;47.936;8.716;2023-07-16T10:42:19;21.50;61.50
11229;DHT22;5671;47.936;8.716;2023-07-16T10:44:49;21.60;58.80
11229;DHT22;5671;47.936;8.716;2023-07-16T10:47:22;21.60;58.20
11229;DHT22;5671;47.936;8.716;2023-07-16T10:49:49;21.70;59.20
11229;DHT22;5671;47.936;8.716;2023-07-16T10:52:19;21.90;60.60
11229;DHT22;5671;47.936;8.716;2023-07-16T10:54:46;22.00;56.60
11229;DHT22;5671;47.936;8.716;2023-07-16T10:57:14;22.00;58.80
11229;DHT22;5671;47.936;8.716;2023-07-16T10:59:42;21.90;58.40
11229;DHT22;5671;47.936;8.716;2023-07-16T11:02:12;21.90;60.30
11229;DHT22;5671;47.936;8.716;2023-07-16T11:04:39;22.10;57.90
11229;DHT22;5671;47.936;8.716;2023-07-16T11:07:08;22.30;57.70
11229;DHT22;5671;47.936;8.716;2023-07-16T11:09:41;22.40;56.70
11229;DHT22;5671;47.936;8.716;2023-07-16T11:12:09;22.50;56.50
11229;DHT22;5671;47.936;8.716;2023-07-16T11:14:37;22.50;58.70
11229;DHT22;5671;47.936;8.716;2023-07-16T11:17:05;22.50;55.00
11229;DHT22;5671;47.936;8.716;2023-07-16T11:19:33;22.50;56.70
11229;DHT22;5671;47.936;8.716;2023-07-16T11:22:00;22.60;57.10
11229;DHT22;5671;47.936;8.716;2023-07-16T11:24:28;22.70;56.60
11229;DHT22;5671;47.936;8.716;2023-07-16T11:26:56;22.80;56.30
11229;DHT22;5671;47.936;8.716;2023-07-16T11:29:23;22.80;57.00
11229;DHT22;5671;47.936;8.716;2023-07-16T11:31:51;23.00;55.30
11229;DHT22;5671;47.936;8.716;2023-07-16T11:34:20;22.90;55.90
11229;DHT22;5671;47.936;8.716;2023-07-16T11:36:48;22.60;55.70
11229;DHT22;5671;47.936;8.716;2023-07-16T11:39:15;22.80;57.10
11229;DHT22;5671;47.936;8.716;2023-07-16T11:41:42;22.90;56.00
11229;DHT22;5671;47.936;8.716;2023-07-16T11:44:10;23.00;56.50
11229;DHT22;5671;47.936;8.716;2023-07-16T11:46:38;23.10;57.40
11229;DHT22;5671;47.936;8.716;2023-07-16T11:49:05;23.20;57.10
11229;DHT22;5671;47.936;8.716;2023-07-16T11:51:32;23.40;56.70
11229;DHT22;5671;47.936;8.716;2023-07-16T11:53:59;23.30;54.40
11229;DHT22;5671;47.936;8.716;2023-07-16T11:56:25;23.40;53.50
11229;DHT22;5671;47.936;8.716;2023-07-16T11:58:52;23.20;54.80
11229;DHT22;5671;47.936;8.716;2023-07-16T12:01:20;23.20;56.90
11229;DHT22;5671;47.936;8.716;2023-07-16T12:03:50;23.30;54.50
11229;DHT22;5671;47.936;8.716;2023-07-16T12:06:17;23.30;55.60
11229;DHT22;5671;47.936;8.716;2023-07-16T12:08:44;23.50;53.90
11229;DHT22;5671;47.936;8.716;2023-07-16T12:11:10;23.50;54.40
11229;DHT22;5671;47.936;8.716;2023-07-16T12:13:37;23.40;55.70
11229;DHT22;5671;47.936;8.716;2023-07-16T12:16:05;23.30;55.90
11229;DHT22;5671;47.936;8.716;2023-07-16T12:18:33;23.40;53.30
11229;DHT22;5671;47.936;8.716;2023-07-16T12:21:00;23.40;54.60
11229;DHT22;5671;47.936;8.716;2023-07-16T12:23:27;23.40;56.20
11229;DHT22;5671;47.936;8.716;2023-07-16T12:25:53;23.40;52.60
11229;DHT22;5671;47.936;8.716;2023-07-16T12:28:20;23.30;52.30
11229;DHT22;5671;47.936;8.716;2023-07-16T12:30:47;23.30;51.80
11229;DHT22;5671;47.936;8.716;2023-07-16T12:33:14;23.30;53.90
11229;DHT22;5671;47.936;8.716;2023-07-16T12:35:42;23.40;54.40
11229;DHT22;5671;47.936;8.716;2023-07-16T12:38:09;23.40;53.60
11229;DHT22;5671;47.936;8.716;2023-07-16T12:40:36;23.70;54.00
11229;DHT22;5671;47.936;8.716;2023-07-16T12:43:06;23.80;53.40
11229;DHT22;5671;47.936;8.716;2023-07-16T12:45:33;23.70;52.50
11229;DHT22;5671;47.936;8.716;2023-07-16T12:48:00;23.60;55.90
11229;DHT22;5671;47.936;8.716;2023-07-16T12:50:26;23.60;54.10
11229;DHT22;5671;47.936;8.716;2023-07-16T12:52:56;23.50;53.80
11229;DHT22;5671;47.936;8.716;2023-07-16T12:55:23;23.50;52.90
11229;DHT22;5671;47.936;8.716;2023-07-16T12:57:50;23.50;54.70
11229;DHT22;5671;47.936;8.716;2023-07-16T13:00:17;23.60;54.00
11229;DHT22;5671;47.936;8.716;2023-07-16T13:02:44;23.70;55.30
11229;DHT22;5671;47.936;8.716;2023-07-16T13:05:10;23.70;54.10
11229;DHT22;5671;47.936;8.716;2023-07-16T13:07:37;24.00;54.20
11229;DHT22;5671;47.936;8.716;2023-07-16T13:10:07;24.00;51.70
11229;DHT22;5671;47.936;8.716;2023-07-16T13:12:34;24.20;54.40
11229;DHT22;5671;47.936;8.716;2023-07-16T13:15:01;24.20;55.70
11229;DHT22;5671;47.936;8.716;2023-07-16T13:17:28;24.30;52.30
11229;DHT22;5671;47.936;8.716;2023-07-16T13:19:55;24.20;53.40
11229;DHT22;5671;47.936;8.716;2023-07-16T13:22:22;24.20;52.50
11229;DHT22;5671;47.936;8.716;2023-07-16T13:24:48;24.50;52.40
11229;DHT22;5671;47.936;8.716;2023-07-16T13:27:22;24.60;52.80
11229;DHT22;5671;47.936;8.716;2023-07-16T13:29:49;24.50;51.80
11229;DHT22;5671;47.936;8.716;2023-07-16T13:32:16;24.50;52.50
11229;DHT22;5671;47.936;8.716;2023-07-16T13:34:43;24.70;52.80
11229;DHT22;5671;47.936;8.716;2023-07-16T13:37:10;25.00;52.80
11229;DHT22;5671;47.936;8.716;2023-07-16T13:39:37;25.20;50.10
11229;DHT22;5671;47.936;8.716;2023-07-16T13:42:04;25.20;48.80
11229;DHT22;5671;47.936;8.716;2023-07-16T13:44:33;25.20;49.30
11229;DHT22;5671;47.936;8.716;2023-07-16T13:47:00;25.10;50.40
11229;DHT22;5671;47.936;8.716;2023-07-16T13:49:27;25.30;50.70
11229;DHT22;5671;47.936;8.716;2023-07-16T13:51:54;25.40;48.90
11229;DHT22;5671;47.936;8.716;2023-07-16T13:54:21;25.40;49.60
11229;DHT22;5671;47.936;8.716;2023-07-16T13:56:48;25.50;50.00
11229;DHT22;5671;47.936;8.716;2023-07-16T13:59:15;25.60;50.00
11229;DHT22;5671;47.936;8.716;2023-07-16T14:01:43;25.70;49.60
11229;DHT22;5671;47.936;8.716;2023-07-16T14:04:10;25.80;49.40
11229;DHT22;5671;47.936;8.716;2023-07-16T14:06:37;26.00;48.70
11229;DHT22;5671;47.936;8.716;2023-07-16T14:09:04;26.10;48.20
11229;DHT22;5671;47.936;8.716;2023-07-16T14:11:31;26.00;49.20
11229;DHT22;5671;47.936;8.716;2023-07-16T14:13:58;26.20;48.50
11229;DHT22;5671;47.936;8.716;2023-07-16T14:16:25;26.00;47.90
11229;DHT22;5671;47.936;8.716;2023-07-16T14:18:53;26.00;47.90
11229;DHT22;5671;47.936;8.716;2023-07-16T14:21:20;26.30;49.50
11229;DHT22;5671;47.936;8.716;2023-07-16T14:23:47;26.40;48.30
11229;DHT22;5671;47.936;8.716;2023-07-16T14:26:14;26.40;48.30
11229;DHT22;5671;47.936;8.716;2023-07-16T14:28:44;26.50;48.40
11229;DHT22;5671;47.936;8.716;2023-07-16T14:31:10;26.60;48.80
11229;DHT22;5671;47.936;8.716;2023-07-16T14:33:38;26.60;48.70
11229;DHT22;5671;47.936;8.716;2023-07-16T14:36:06;26.60;46.70
11229;DHT22;5671;47.936;8.716;2023-07-16T14:38:33;26.50;48.90
11229;DHT22;5671;47.936;8.716;2023-07-16T14:41:00;26.50;47.10
11229;DHT22;5671;47.936;8.716;2023-07-16T14:43:27;26.60;48.20
11229;DHT22;5671;47.936;8.716;2023-07-16T14:45:53;26.70;47.40
11229;DHT22;5671;47.936;8.716;2023-07-16T14:48:20;26.80;47.50
11229;DHT22;5671;47.936;8.716;2023-07-16T14:50:49;26.80;47.70
11229;DHT22;5671;47.936;8.716;2023-07-16T14:53:17;26.90;46.60
11229;DHT22;5671;47.936;8.716;2023-07-16T14:55:49;26.90;47.20
11229;DHT22;5671;47.936;8.716;2023-07-16T14:58:18;26.80;46.90
11229;DHT22;5671;47.936;8.716;2023-07-16T15:00:46;26.90;46.60
11229;DHT22;5671;47.936;8.716;2023-07-16T15:03:13;26.80;45.90
11229;DHT22;5671;47.936;8.716;2023-07-16T15:05:39;26.80;46.20
11229;DHT22;5671;47.936;8.716;2023-07-16T15:08:07;26.80;46.10
11229;DHT22;5671;47.936;8.716;2023-07-16T15:10:35;26.70;45.00
11229;DHT22;5671;47.936;8.716;2023-07-16T15:13:02;26.60;47.00
11229;DHT22;5671;47.936;8.716;2023-07-16T15:15:30;26.60;47.70
11229;DHT22;5671;47.936;8.716;2023-07-16T15:17:56;26.70;47.70
11229;DHT22;5671;47.936;8.716;2023-07-16T15:20:23;26.80;46.10
11229;DHT22;5671;47.936;8.716;2023-07-16T15:22:51;26.90;47.60
11229;DHT22;5671;47.936;8.716;2023-07-16T15:25:17;26.80;45.60
11229;DHT22;5671;47.936;8.716;2023-07-16T15:27:45;26.70;45.30
11229;DHT22;5671;47.936;8.716;2023-07-16T15:30:12;26.80;46.70
11229;DHT22;5671;47.936;8.716;2023-07-16T15:32:39;26.90;45.50
11229;DHT22;5671;47.936;8.716;2023-07-16T15:35:07;27.00;45.90
11229;DHT22;5671;47.936;8.716;2023-07-16T15:37:33;26.80;45.70
11229;DHT22;5671;47.936;8.716;2023-07-16T15:40:12;26.80;46.20
11229;DHT22;5671;47.936;8.716;2023-07-16T15:42:39;26.60;47.60
11229;DHT22;5671;47.936;8.716;2023-07-16T15:45:09;26.40;47.70
11229;DHT22;5671;47.936;8.716;2023-07-16T15:47:38;26.30;46.70